Time;durP1;ratioP1;P1;durP2;ratioP2;P2;SDS_P1;SDS_P2;PMS_P1;PMS_P2;Temp;Humidity;BMP_temperature;BMP_pressure;BME280_temperature;BME280_humidity;BME280_pressure;Samples;Min_cycle;Max_cycle;Signal;HPM_P1;HPM_P2
2022/07/20 00:01:04;;;;;;;;;;;22.00;92.30;;;;;;5010508;28;19929;-85
2022/07/20 00:03:51;;;;;;;;;;;21.60;92.20;;;;;;5010379;28;19930;-86
2022/07/20 00:06:23;;;;;;;;;;;21.90;92.30;;;;;;5009261;28;19936;-85
2022/07/20 00:12:28;;;;;;;;;;;21.80;92.80;;;;;;4994013;28;19932;-86
2022/07/20 00:15:42;;;;;;;;;;;21.20;92.60;;;;;;5010843;28;19932;-86
2022/07/20 00:18:11;;;;;;;;;;;21.30;93.40;;;;;;4993676;28;20392;-85
2022/07/20 00:20:44;;;;;;;;;;;23.20;93.20;;;;;;5010420;28;19925;-86
2022/07/20 00:23:29;;;;;;;;;;;20.60;92.80;;;;;;5012276;28;19926;-87
2022/07/20 00:26:44;;;;;;;;;;;20.80;93.30;;;;;;4986400;28;19926;-85
2022/07/20 00:29:51;;;;;;;;;;;21.70;93.40;;;;;;4969104;28;19914;-87
2022/07/20 00:32:50;;;;;;;;;;;;;;;;;;;;;
2022/07/20 00:35:49;;;;;;;;;;;21.50;93.50;;;;;;5026902;28;19930;-88
2022/07/20 00:38:35;;;;;;;;;;;19.60;93.30;;;;;;4983472;28;19914;-85
2022/07/20 00:41:14;;;;;;;;;;;22.90;94.10;;;;;;4995918;28;19932;-85
2022/07/20 00:44:28;;;;;;;;;;;;;;;;;;;;;
2022/07/20 00:47:09;;;;;;;;;;;21.20;93.90;;;;;;4986334;28;19924;-85
2022/07/20 00:50:01;;;;;;;;;;;20.20;93.80;;;;;;4996569;28;19926;-84
2022/07/20 00:52:37;;;;;;;;;;;21.20;94.00;;;;;;4673964;28;9999901;-85
2022/07/20 00:55:17;;;;;;;;;;;21.00;93.90;;;;;;5013920;28;19926;-85
2022/07/20 00:57:58;;;;;;;;;;;21.30;94.10;;;;;;5009084;28;19929;-85
2022/07/20 01:01:02;;;;;;;;;;;21.30;94.90;;;;;;5006213;28;19926;-87
2022/07/20 01:04:02;;;;;;;;;;;21.60;95.00;;;;;;5015081;28;20284;-85
2022/07/20 01:07:31;;;;;;;;;;;;;;;;;;;;;
2022/07/20 01:10:21;;;;;;;;;;;21.10;93.80;;;;;;4994576;28;19932;-84
2022/07/20 01:12:50;;;;;;;;;;;21.20;94.80;;;;;;4955623;28;19937;-86
2022/07/20 01:15:31;;;;;;;;;;;19.10;93.60;;;;;;5007190;28;20457;-86
2022/07/20 01:18:15;;;;;;;;;;;21.20;93.30;;;;;;5009153;28;19926;-85
2022/07/20 01:20:56;;;;;;;;;;;20.40;94.00;;;;;;5023382;28;19925;-85
2022/07/20 01:23:59;;;;;;;;;;;21.60;94.00;;;;;;5014764;28;19959;-86
2022/07/20 01:26:55;;;;;;;;;;;21.60;93.60;;;;;;5010891;28;19936;-88
2022/07/20 01:33:21;;;;;;;;;;;21.10;93.90;;;;;;4974845;28;19930;-86
2022/07/20 01:35:54;;;;;;;;;;;21.00;93.60;;;;;;5007918;28;19929;-86
2022/07/20 01:38:47;;;;;;;;;;;21.00;94.20;;;;;;4983847;28;19964;-87
2022/07/20 01:41:55;;;;;;;;;;;;;;;;;;;;;
2022/07/20 01:45:32;;;;;;;;;;;21.00;94.00;;;;;;4995552;28;19926;-87
2022/07/20 01:48:34;;;;;;;;;;;20.20;93.60;;;;;;5040648;28;19926;-87
2022/07/20 01:54:46;;;;;;;;;;;21.70;95.20;;;;;;5001874;28;20295;-86
2022/07/20 01:58:09;;;;;;;;;;;20.10;93.90;;;;;;5010738;28;19930;-86
2022/07/20 02:01:22;;;;;;;;;;;21.30;95.10;;;;;;5004606;28;19936;-86
2022/07/20 02:08:13;;;;;;;;;;;20.00;93.90;;;;;;4915618;29;19934;-86
2022/07/20 02:10:42;;;;;;;;;;;25.00;95.10;;;;;;4925588;29;19927;-85
2022/07/20 02:13:17;;;;;;;;;;;20.90;95.30;;;;;;4972941;28;19940;-85
2022/07/20 02:16:34;;;;;;;;;;;19.00;94.40;;;;;;4993212;28;19936;-86
2022/07/20 02:19:06;;;;;;;;;;;22.20;96.00;;;;;;5009907;28;19925;-86
2022/07/20 02:21:49;;;;;;;;;;;19.20;94.60;;;;;;5021897;28;19926;-85
2022/07/20 02:24:47;;;;;;;;;;;;;;;;;;;;;
2022/07/20 02:28:10;;;;;;;;;;;20.70;96.10;;;;;;4992071;28;19936;-84
2022/07/20 02:34:18;;;;;;;;;;;;;;;;;;;;;
2022/07/20 02:41:23;;;;;;;;;;;20.50;96.00;;;;;;5007048;28;19926;-87
2022/07/20 02:44:24;;;;;;;;;;;20.50;95.80;;;;;;4994477;28;19925;-86
2022/07/20 02:48:05;;;;;;;;;;;;;;;;;;;;;
2022/07/20 02:50:54;;;;;;;;;;;20.60;96.30;;;;;;5007969;28;19926;-85
2022/07/20 02:53:25;;;;;;;;;;;21.80;96.30;;;;;;4992210;28;19930;-85
2022/07/20 02:55:57;;;;;;;;;;;19.30;96.30;;;;;;4990840;28;19929;-84
2022/07/20 02:58:46;;;;;;;;;;;21.40;96.30;;;;;;5008681;28;19936;-86
2022/07/20 03:01:57;;;;;;;;;;;21.40;96.40;;;;;;4986496;28;19926;-86
2022/07/20 03:04:56;;;;;;;;;;;19.70;96.60;;;;;;5017266;28;19940;-88
2022/07/20 03:07:46;;;;;;;;;;;20.30;97.80;;;;;;5013888;28;19926;-86
2022/07/20 03:13:13;;;;;;;;;;;20.40;98.10;;;;;;4994420;28;19925;-85
2022/07/20 03:15:43;;;;;;;;;;;20.30;96.80;;;;;;5012450;28;19933;-85
2022/07/20 03:18:20;;;;;;;;;;;20.20;97.40;;;;;;5010194;28;19930;-86
2022/07/20 03:21:55;;;;;;;;;;;22.10;98.60;;;;;;4961161;28;19930;-86
2022/07/20 03:24:52;;;;;;;;;;;20.30;97.00;;;;;;4935575;29;19937;-86
2022/07/20 03:27:32;;;;;;;;;;;20.40;96.90;;;;;;4973561;28;19942;-85
2022/07/20 03:30:32;;;;;;;;;;;20.40;97.60;;;;;;4958048;29;19927;-86
2022/07/20 03:33:38;;;;;;;;;;;20.70;97.40;;;;;;4974803;29;19931;-86
2022/07/20 03:37:25;;;;;;;;;;;20.60;98.10;;;;;;4890171;29;19989;-86
2022/07/20 03:40:10;;;;;;;;;;;20.60;98.10;;;;;;4913052;29;19915;-86
2022/07/20 03:44:06;;;;;;;;;;;20.40;98.20;;;;;;4906263;29;19912;-87
2022/07/20 03:47:22;;;;;;;;;;;20.40;97.60;;;;;;4931588;29;20221;-87
2022/07/20 03:58:15;;;;;;;;;;;20.70;97.70;;;;;;4924062;29;19930;-87
2022/07/20 04:01:41;;;;;;;;;;;;;;;;;;;;;
2022/07/20 04:04:28;;;;;;;;;;;19.10;97.20;;;;;;4921473;29;19922;-87
2022/07/20 04:07:35;;;;;;;;;;;21.00;97.80;;;;;;4940035;29;19927;-86
2022/07/20 04:18:33;;;;;;;;;;;20.30;98.80;;;;;;5007106;28;19926;-85
2022/07/20 04:22:06;;;;;;;;;;;20.80;98.20;;;;;;5004263;28;19925;-86
2022/07/20 04:28:03;;;;;;;;;;;20.70;98.80;;;;;;4937185;29;19923;-84
2022/07/20 04:30:43;;;;;;;;;;;;;;;;;;;;;
2022/07/20 04:33:34;;;;;;;;;;;18.50;98.80;;;;;;4963087;28;19927;-85
2022/07/20 04:37:02;;;;;;;;;;;20.60;99.70;;;;;;4950807;29;19930;-88
2022/07/20 04:39:41;;;;;;;;;;;18.60;98.10;;;;;;4936003;29;19931;-88
2022/07/20 04:42:32;;;;;;;;;;;20.50;99.90;;;;;;4945874;29;19937;-85
2022/07/20 04:45:21;;;;;;;;;;;21.50;99.90;;;;;;4957620;29;19927;-87
2022/07/20 04:48:54;;;;;;;;;;;;;;;;;;;;;
2022/07/20 04:52:01;;;;;;;;;;;;;;;;;;;;;
2022/07/20 04:54:54;;;;;;;;;;;20.80;99.40;;;;;;4952278;29;19941;-87
2022/07/20 04:57:44;;;;;;;;;;;;;;;;;;;;;
2022/07/20 05:01:26;;;;;;;;;;;20.30;99.60;;;;;;4990133;28;19930;-85
2022/07/20 05:04:40;;;;;;;;;;;20.40;98.80;;;;;;4998269;28;19940;-87
2022/07/20 05:07:19;;;;;;;;;;;20.40;98.90;;;;;;4997084;28;19926;-83
2022/07/20 05:10:33;;;;;;;;;;;22.10;99.30;;;;;;5013525;28;19944;-88
2022/07/20 05:13:05;;;;;;;;;;;20.20;99.90;;;;;;5001031;28;20413;-86
2022/07/20 05:15:37;;;;;;;;;;;20.70;99.00;;;;;;4989149;28;19926;-85
2022/07/20 05:18:29;;;;;;;;;;;;;;;;;;;;;
2022/07/20 05:21:35;;;;;;;;;;;20.40;98.90;;;;;;5009820;28;19926;-86
2022/07/20 05:24:12;;;;;;;;;;;20.40;99.00;;;;;;5002670;28;19932;-85
2022/07/20 05:27:04;;;;;;;;;;;20.30;99.10;;;;;;5011187;28;19930;-86
2022/07/20 05:29:56;;;;;;;;;;;;;;;;;;;;;
2022/07/20 05:33:03;;;;;;;;;;;18.30;98.80;;;;;;4997367;28;19940;-86
2022/07/20 05:35:51;;;;;;;;;;;20.90;99.10;;;;;;4985035;28;19932;-85
2022/07/20 05:38:33;;;;;;;;;;;19.40;98.40;;;;;;4985804;28;19937;-83
2022/07/20 05:41:13;;;;;;;;;;;20.60;98.70;;;;;;4992371;28;19928;-86
2022/07/20 05:43:50;;;;;;;;;;;20.20;98.60;;;;;;4985920;28;19925;-86
2022/07/20 05:47:13;;;;;;;;;;;21.30;98.60;;;;;;4995024;28;19926;-85
2022/07/20 05:53:54;;;;;;;;;;;21.20;98.90;;;;;;4914973;29;19933;-86
2022/07/20 05:57:38;;;;;;;;;;;21.20;98.10;;;;;;4874387;29;19947;-86
2022/07/20 06:04:55;;;;;;;;;;;21.50;98.30;;;;;;4830935;29;20141;-86
2022/07/20 06:07:55;;;;;;;;;;;21.20;97.80;;;;;;4818186;29;19937;-86
2022/07/20 06:11:21;;;;;;;;;;;21.50;97.90;;;;;;4846142;29;19928;-87
2022/07/20 06:14:03;;;;;;;;;;;21.20;98.20;;;;;;4871226;29;19978;-88
2022/07/20 06:18:32;;;;;;;;;;;;;;;;;;;;;
2022/07/20 06:26:48;;;;;;;;;;;21.00;97.90;;;;;;4944947;28;19930;-86
2022/07/20 06:29:47;;;;;;;;;;;20.90;97.70;;;;;;4967047;29;19926;-86
2022/07/20 06:32:38;;;;;;;;;;;21.20;97.80;;;;;;4951470;29;19926;-85
2022/07/20 06:35:27;;;;;;;;;;;;;;;;;;;;;
2022/07/20 06:45:34;;;;;;;;;;;21.30;98.50;;;;;;4950123;29;19931;-84
2022/07/20 06:48:42;;;;;;;;;;;21.20;98.50;;;;;;4937763;29;19931;-85
2022/07/20 06:52:11;;;;;;;;;;;19.10;96.90;;;;;;4943628;29;20591;-86
2022/07/20 06:55:04;;;;;;;;;;;20.60;97.30;;;;;;4939879;29;19941;-86
2022/07/20 07:01:44;;;;;;;;;;;21.60;97.20;;;;;;4925347;29;19927;-84
2022/07/20 07:04:17;;;;;;;;;;;21.60;97.10;;;;;;4917057;29;19939;-83
2022/07/20 07:06:52;;;;;;;;;;;21.20;96.90;;;;;;4947434;29;19926;-85
2022/07/20 07:09:59;;;;;;;;;;;21.10;97.80;;;;;;4914241;29;19931;-85
2022/07/20 07:12:44;;;;;;;;;;;21.50;96.90;;;;;;4949013;29;19930;-86
2022/07/20 07:15:22;;;;;;;;;;;21.30;96.80;;;;;;4931988;29;19931;-83
2022/07/20 07:18:06;;;;;;;;;;;22.00;96.90;;;;;;4931570;29;19927;-84
2022/07/20 07:21:12;;;;;;;;;;;21.40;96.70;;;;;;4616256;28;10001164;-86
2022/07/20 07:24:45;;;;;;;;;;;21.50;97.40;;;;;;4993278;28;19926;-83
2022/07/20 07:27:24;;;;;;;;;;;21.90;96.80;;;;;;4993157;28;19925;-84
2022/07/20 07:29:54;;;;;;;;;;;21.60;96.60;;;;;;5012142;28;19933;-85
2022/07/20 07:32:36;;;;;;;;;;;21.40;96.20;;;;;;5015537;28;19926;-85
2022/07/20 07:35:44;;;;;;;;;;;;;;;;;;;;;
2022/07/20 07:38:30;;;;;;;;;;;21.60;96.00;;;;;;5007086;28;19925;-85
2022/07/20 07:41:37;;;;;;;;;;;22.30;96.00;;;;;;4994098;28;19929;-82
2022/07/20 07:44:41;;;;;;;;;;;21.70;96.90;;;;;;5023669;28;19926;-86
2022/07/20 07:48:10;;;;;;;;;;;;;;;;;;;;;
2022/07/20 07:51:47;;;;;;;;;;;22.30;95.50;;;;;;4837165;29;19928;-85
2022/07/20 07:57:56;;;;;;;;;;;22.40;94.60;;;;;;4841772;29;19913;-85
2022/07/20 08:01:13;;;;;;;;;;;;;;;;;;;;;
2022/07/20 08:05:08;;;;;;;;;;;23.60;95.50;;;;;;4818633;29;19948;-89
2022/07/20 08:09:18;;;;;;;;;;;21.30;93.70;;;;;;4911037;29;20012;-87
2022/07/20 08:12:31;;;;;;;;;;;23.90;94.00;;;;;;4952049;29;19961;-85
2022/07/20 08:15:21;;;;;;;;;;;23.20;93.40;;;;;;4897703;29;20030;-84
2022/07/20 08:18:05;;;;;;;;;;;22.80;93.30;;;;;;4860367;29;19928;-84
2022/07/20 08:25:09;;;;;;;;;;;23.60;92.30;;;;;;4880471;29;19932;-86
2022/07/20 08:28:44;;;;;;;;;;;;;;;;;;;;;
2022/07/20 08:31:49;;;;;;;;;;;23.40;92.30;;;;;;4930656;28;19927;-86
2022/07/20 08:35:25;;;;;;;;;;;23.50;92.50;;;;;;4974132;28;20029;-85
2022/07/20 08:38:30;;;;;;;;;;;20.10;91.90;;;;;;4991463;28;19926;-86
2022/07/20 08:41:44;;;;;;;;;;;23.10;92.60;;;;;;5010561;28;19932;-87
2022/07/20 08:45:20;;;;;;;;;;;23.10;92.70;;;;;;4990116;28;19933;-85
2022/07/20 08:48:06;;;;;;;;;;;23.40;92.20;;;;;;5024689;28;20126;-85
2022/07/20 08:51:22;;;;;;;;;;;;;;;;;;;;;
2022/07/20 08:59:11;;;;;;;;;;;23.20;91.40;;;;;;4934117;29;19939;-86
2022/07/20 09:10:49;;;;;;;;;;;26.10;90.90;;;;;;4917034;29;19942;-87
2022/07/20 09:14:02;;;;;;;;;;;24.00;90.90;;;;;;4935144;29;19941;-85
2022/07/20 09:24:34;;;;;;;;;;;;;;;;;;;;;
2022/07/20 09:27:56;;;;;;;;;;;24.20;90.60;;;;;;4816900;29;19929;-85
2022/07/20 09:32:10;;;;;;;;;;;;;;;;;;;;;
2022/07/20 09:36:08;;;;;;;;;;;;;;;;;;;;;
2022/07/20 09:39:32;;;;;;;;;;;24.70;87.10;;;;;;4727980;30;19933;-85
2022/07/20 09:42:39;;;;;;;;;;;;;;;;;;;;;
2022/07/20 09:53:24;;;;;;;;;;;24.50;85.50;;;;;;4865855;29;19928;-86
2022/07/20 09:56:58;;;;;;;;;;;;;;;;;;;;;
2022/07/20 10:00:22;;;;;;;;;;;25.20;84.00;;;;;;4840894;29;19929;-87
2022/07/20 10:12:25;;;;;;;;;;;;;;;;;;;;;
2022/07/20 10:20:50;;;;;;;;;;;;;;;;;;;;;
2022/07/20 10:24:48;;;;;;;;;;;;;;;;;;;;;
2022/07/20 10:28:49;;;;;;;;;;;26.00;78.90;;;;;;4798808;30;19940;-86
2022/07/20 10:32:43;;;;;;;;;;;;;;;;;;;;;
2022/07/20 10:35:49;;;;;;;;;;;26.40;79.30;;;;;;4755091;29;19925;-86
2022/07/20 10:39:06;;;;;;;;;;;25.30;77.90;;;;;;4783645;29;19917;-87
2022/07/20 10:43:01;;;;;;;;;;;;;;;;;;;;;
2022/07/20 10:46:27;;;;;;;;;;;;;;;;;;;;;
2022/07/20 10:53:45;;;;;;;;;;;26.60;77.80;;;;;;4967048;28;19930;-87
2022/07/20 10:57:22;;;;;;;;;;;25.80;77.60;;;;;;4876017;29;19911;-85
2022/07/20 11:04:48;;;;;;;;;;;26.90;78.80;;;;;;4917928;29;19928;-87
2022/07/20 11:08:27;;;;;;;;;;;24.80;75.10;;;;;;4889580;29;19932;-86
2022/07/20 11:15:57;;;;;;;;;;;27.80;76.10;;;;;;4818185;29;19937;-84
2022/07/20 11:19:41;;;;;;;;;;;27.90;75.70;;;;;;4782367;29;20114;-86
2022/07/20 11:26:45;;;;;;;;;;;;;;;;;;;;;
2022/07/20 11:29:28;;;;;;;;;;;27.90;76.90;;;;;;4872528;29;20297;-86
2022/07/20 11:32:49;;;;;;;;;;;27.80;75.00;;;;;;4909766;29;19940;-86
2022/07/20 11:36:04;;;;;;;;;;;27.70;78.10;;;;;;4909463;29;19928;-85
2022/07/20 11:38:57;;;;;;;;;;;;;;;;;;;;;
2022/07/20 11:41:53;;;;;;;;;;;28.70;74.60;;;;;;4901288;29;19935;-83
2022/07/20 11:44:29;;;;;;;;;;;28.70;74.70;;;;;;4910267;29;19932;-86
2022/07/20 11:47:33;;;;;;;;;;;28.70;75.80;;;;;;5006754;28;19929;-80
2022/07/20 11:50:03;;;;;;;;;;;28.60;74.00;;;;;;5005759;28;19926;-84
2022/07/20 11:52:42;;;;;;;;;;;28.40;74.30;;;;;;5004408;28;19933;-85
2022/07/20 11:55:39;;;;;;;;;;;28.60;75.00;;;;;;4991195;28;19930;-86
2022/07/20 12:01:48;;;;;;;;;;;28.20;75.00;;;;;;4980986;28;19933;-86
2022/07/20 12:04:34;;;;;;;;;;;27.00;73.10;;;;;;4990782;28;19934;-86
2022/07/20 12:10:08;;;;;;;;;;;28.20;74.30;;;;;;5005580;28;19929;-86
2022/07/20 12:12:47;;;;;;;;;;;27.90;74.00;;;;;;4988425;28;20401;-86
2022/07/20 12:15:42;;;;;;;;;;;27.40;75.60;;;;;;4989555;28;19960;-84
2022/07/20 12:18:40;;;;;;;;;;;27.40;75.10;;;;;;4972068;28;19930;-87
2022/07/20 12:21:53;;;;;;;;;;;27.20;75.70;;;;;;4961159;28;19926;-85
2022/07/20 12:24:51;;;;;;;;;;;27.40;77.60;;;;;;4991031;28;19926;-88
2022/07/20 12:27:36;;;;;;;;;;;27.30;76.10;;;;;;4973674;28;19934;-85
2022/07/20 12:30:28;;;;;;;;;;;27.00;75.00;;;;;;4973831;28;19926;-84
2022/07/20 12:37:27;;;;;;;;;;;26.80;74.60;;;;;;4958853;28;19934;-84
2022/07/20 12:40:05;;;;;;;;;;;28.40;73.70;;;;;;4974383;28;19926;-86
2022/07/20 12:46:56;;;;;;;;;;;29.00;74.20;;;;;;4962799;28;19934;-87
2022/07/20 12:49:40;;;;;;;;;;;28.30;73.10;;;;;;4950052;28;19937;-85
2022/07/20 12:52:22;;;;;;;;;;;28.40;72.70;;;;;;4957165;28;19929;-88
2022/07/20 12:56:07;;;;;;;;;;;26.40;71.90;;;;;;4974014;28;19972;-89
2022/07/20 12:59:17;;;;;;;;;;;27.90;73.20;;;;;;4955207;28;19934;-86
2022/07/20 13:02:11;;;;;;;;;;;28.20;73.60;;;;;;5004523;28;19930;-86
2022/07/20 13:04:39;;;;;;;;;;;27.60;73.90;;;;;;4969898;28;19934;-85
2022/07/20 13:07:49;;;;;;;;;;;29.20;76.70;;;;;;4970610;28;19934;-86
2022/07/20 13:11:09;;;;;;;;;;;27.10;74.10;;;;;;4963072;28;19926;-86
2022/07/20 13:13:41;;;;;;;;;;;27.20;75.90;;;;;;5003775;28;19952;-86
2022/07/20 13:16:35;;;;;;;;;;;28.10;75.20;;;;;;4948956;28;19929;-84
2022/07/20 13:19:17;;;;;;;;;;;;;;;;;;;;;
2022/07/20 13:21:57;;;;;;;;;;;26.80;74.10;;;;;;4962843;28;19941;-84
2022/07/20 13:24:49;;;;;;;;;;;26.60;74.80;;;;;;4982887;28;19934;-85
2022/07/20 13:27:17;;;;;;;;;;;26.50;76.00;;;;;;4983983;28;19934;-86
2022/07/20 13:30:23;;;;;;;;;;;26.60;76.30;;;;;;4970529;28;19934;-86
2022/07/20 13:33:48;;;;;;;;;;;26.80;74.40;;;;;;4611416;28;9999619;-85
2022/07/20 13:36:50;;;;;;;;;;;26.70;77.30;;;;;;4983840;28;19926;-86
2022/07/20 13:39:38;;;;;;;;;;;26.60;74.80;;;;;;4969608;28;19926;-85
2022/07/20 13:42:43;;;;;;;;;;;25.50;75.10;;;;;;4986341;28;19936;-87
2022/07/20 13:49:13;;;;;;;;;;;26.10;77.30;;;;;;4982970;28;19926;-87
2022/07/20 13:52:09;;;;;;;;;;;26.10;78.00;;;;;;4974570;28;19918;-86
2022/07/20 13:55:20;;;;;;;;;;;26.10;77.60;;;;;;4990202;28;19930;-84
2022/07/20 13:58:21;;;;;;;;;;;;;;;;;;;;;
2022/07/20 14:01:28;;;;;;;;;;;26.00;77.40;;;;;;4980941;28;19927;-83
2022/07/20 14:04:00;;;;;;;;;;;26.10;78.00;;;;;;4969545;28;19926;-82
2022/07/20 14:06:34;;;;;;;;;;;26.20;77.90;;;;;;4984873;28;19933;-81
2022/07/20 14:09:03;;;;;;;;;;;26.20;78.60;;;;;;4982108;28;19929;-82
2022/07/20 14:11:35;;;;;;;;;;;26.30;77.90;;;;;;4972115;28;20307;-81
2022/07/20 14:14:04;;;;;;;;;;;26.30;77.70;;;;;;4983996;28;19932;-80
2022/07/20 14:16:34;;;;;;;;;;;26.40;77.90;;;;;;4985230;28;19926;-81
2022/07/20 14:19:02;;;;;;;;;;;26.60;77.30;;;;;;5000431;28;19932;-81
2022/07/20 14:21:31;;;;;;;;;;;26.80;77.10;;;;;;4984374;28;19926;-82
2022/07/20 14:24:00;;;;;;;;;;;26.90;76.10;;;;;;5001044;28;19930;-81
2022/07/20 14:26:27;;;;;;;;;;;27.00;76.30;;;;;;5000411;28;20028;-82
2022/07/20 14:29:02;;;;;;;;;;;27.10;76.20;;;;;;5000555;28;19926;-82
2022/07/20 14:31:33;;;;;;;;;;;27.00;75.30;;;;;;4968863;28;19940;-79
2022/07/20 14:34:02;;;;;;;;;;;27.40;75.00;;;;;;4969411;28;19938;-79
2022/07/20 14:36:33;;;;;;;;;;;26.50;73.80;;;;;;4988311;28;19927;-80
2022/07/20 14:39:02;;;;;;;;;;;28.00;73.60;;;;;;4969178;28;19931;-80
2022/07/20 14:41:30;;;;;;;;;;;28.20;73.00;;;;;;5004382;28;19930;-80
2022/07/20 14:43:58;;;;;;;;;;;28.40;72.80;;;;;;4969585;28;19934;-80
2022/07/20 14:46:28;;;;;;;;;;;28.60;72.20;;;;;;4987769;28;19926;-80
2022/07/20 14:48:57;;;;;;;;;;;29.10;71.80;;;;;;4985300;28;19941;-79
2022/07/20 14:51:51;;;;;;;;;;;29.40;70.20;;;;;;5001460;28;19926;-80
2022/07/20 14:54:20;;;;;;;;;;;29.80;69.90;;;;;;4973506;28;19934;-81
2022/07/20 14:56:48;;;;;;;;;;;30.00;69.00;;;;;;4969655;28;19926;-80
2022/07/20 14:59:19;;;;;;;;;;;29.80;69.00;;;;;;4969180;28;19930;-81
2022/07/20 15:01:48;;;;;;;;;;;29.90;69.00;;;;;;5003850;28;19949;-81
2022/07/20 15:04:17;;;;;;;;;;;29.80;68.70;;;;;;4986225;28;19926;-79
2022/07/20 15:06:46;;;;;;;;;;;29.60;68.70;;;;;;4988960;28;20304;-80
2022/07/20 15:09:14;;;;;;;;;;;29.60;69.40;;;;;;4967787;28;19929;-81
2022/07/20 15:11:50;;;;;;;;;;;29.70;68.60;;;;;;4989807;28;20059;-79
2022/07/20 15:14:24;;;;;;;;;;;29.80;69.10;;;;;;4972298;28;19933;-80
2022/07/20 15:17:33;;;;;;;;;;;30.20;69.10;;;;;;4999054;28;19942;-80
2022/07/20 15:20:01;;;;;;;;;;;30.20;68.80;;;;;;4973280;28;20032;-80
2022/07/20 15:22:30;;;;;;;;;;;30.30;68.60;;;;;;4987219;28;19934;-81
2022/07/20 15:25:12;;;;;;;;;;;;;;;;;;;;;
2022/07/20 15:27:50;;;;;;;;;;;30.30;68.10;;;;;;4966110;28;19926;-80
2022/07/20 15:30:18;;;;;;;;;;;30.00;68.30;;;;;;4986933;28;20266;-80
2022/07/20 15:32:46;;;;;;;;;;;31.80;70.10;;;;;;5004692;28;19941;-80
2022/07/20 15:35:15;;;;;;;;;;;30.10;69.30;;;;;;5003390;28;19930;-80
2022/07/20 15:37:43;;;;;;;;;;;30.20;67.80;;;;;;4987165;28;19934;-79
2022/07/20 15:40:11;;;;;;;;;;;28.40;66.80;;;;;;5002833;28;19926;-80
2022/07/20 15:42:40;;;;;;;;;;;30.20;69.30;;;;;;4972181;28;19930;-80
2022/07/20 15:45:09;;;;;;;;;;;29.70;68.50;;;;;;4954539;28;20196;-81
2022/07/20 15:47:38;;;;;;;;;;;30.10;68.40;;;;;;4986221;28;19941;-80
2022/07/20 15:50:06;;;;;;;;;;;30.10;68.20;;;;;;4969307;28;20071;-81
2022/07/20 15:52:35;;;;;;;;;;;30.50;68.00;;;;;;4968499;28;19931;-80
2022/07/20 15:55:04;;;;;;;;;;;30.60;67.70;;;;;;4985974;28;19930;-81
2022/07/20 15:57:32;;;;;;;;;;;30.40;67.50;;;;;;4993652;28;19937;-80
2022/07/20 16:00:05;;;;;;;;;;;30.30;68.00;;;;;;4996660;28;19926;-81
2022/07/20 16:02:37;;;;;;;;;;;30.10;67.50;;;;;;4978270;28;19933;-81
2022/07/20 16:05:09;;;;;;;;;;;29.90;68.10;;;;;;5014917;28;19938;-80
2022/07/20 16:07:37;;;;;;;;;;;29.70;67.90;;;;;;4972965;28;19937;-80
2022/07/20 16:10:11;;;;;;;;;;;29.50;69.10;;;;;;4988806;28;19926;-80
2022/07/20 16:12:38;;;;;;;;;;;29.70;68.80;;;;;;4999133;28;19937;-80
2022/07/20 16:15:07;;;;;;;;;;;27.80;68.00;;;;;;4981393;28;20253;-80
2022/07/20 16:17:38;;;;;;;;;;;29.40;68.60;;;;;;4988406;28;20331;-80
2022/07/20 16:20:09;;;;;;;;;;;29.20;68.80;;;;;;4992642;28;19930;-81
2022/07/20 16:22:38;;;;;;;;;;;30.40;70.20;;;;;;5014150;28;19930;-80
2022/07/20 16:25:08;;;;;;;;;;;28.80;69.50;;;;;;5012267;28;19932;-80
2022/07/20 16:27:41;;;;;;;;;;;28.80;70.10;;;;;;4998099;28;19943;-80
2022/07/20 16:30:12;;;;;;;;;;;28.50;69.80;;;;;;5012569;28;19930;-80
2022/07/20 16:33:03;;;;;;;;;;;28.50;69.80;;;;;;5004762;28;19930;-80
2022/07/20 16:35:31;;;;;;;;;;;29.40;70.50;;;;;;5005148;28;19933;-81
2022/07/20 16:37:59;;;;;;;;;;;28.50;70.50;;;;;;5003427;28;20717;-80
2022/07/20 16:40:29;;;;;;;;;;;28.50;70.30;;;;;;5005442;28;20022;-81
2022/07/20 16:42:58;;;;;;;;;;;28.40;70.10;;;;;;4992303;28;19932;-80
2022/07/20 16:45:32;;;;;;;;;;;28.40;70.50;;;;;;5007037;28;19937;-80
2022/07/20 16:48:08;;;;;;;;;;;28.50;70.50;;;;;;4985849;28;19926;-81
2022/07/20 16:50:46;;;;;;;;;;;29.60;71.30;;;;;;4985628;28;20126;-81
2022/07/20 16:53:20;;;;;;;;;;;29.70;69.10;;;;;;4985465;28;19930;-80
2022/07/20 16:55:59;;;;;;;;;;;28.80;67.10;;;;;;4992514;23;20776;-88
2022/07/20 16:58:28;;;;;;;;;;;31.30;66.50;;;;;;4954954;28;19934;-89
2022/07/20 17:00:57;;;;;;;;;;;31.80;66.40;;;;;;4972889;28;19930;-88
2022/07/20 17:03:25;;;;;;;;;;;32.30;65.70;;;;;;4972859;28;19926;-91
2022/07/20 17:05:54;;;;;;;;;;;32.60;64.60;;;;;;4975466;28;19938;-89
2022/07/20 17:08:24;;;;;;;;;;;32.20;64.10;;;;;;4959264;28;19927;-89
2022/07/20 17:10:52;;;;;;;;;;;32.70;64.30;;;;;;4975253;28;19942;-88
2022/07/20 17:13:21;;;;;;;;;;;32.20;63.70;;;;;;4958292;28;19926;-90
2022/07/20 17:15:50;;;;;;;;;;;31.70;64.50;;;;;;4976947;28;19941;-88
2022/07/20 17:18:18;;;;;;;;;;;31.30;65.20;;;;;;4968126;28;19941;-89
2022/07/20 17:20:46;;;;;;;;;;;31.10;65.40;;;;;;4959829;28;19934;-88
2022/07/20 17:23:20;;;;;;;;;;;30.90;65.60;;;;;;4978663;28;20423;-88
2022/07/20 17:25:48;;;;;;;;;;;30.60;66.20;;;;;;4969817;28;19930;-88
2022/07/20 17:28:16;;;;;;;;;;;30.40;66.80;;;;;;4977950;28;19934;-88
2022/07/20 17:30:44;;;;;;;;;;;30.10;67.40;;;;;;4978414;28;19926;-88
2022/07/20 17:33:11;;;;;;;;;;;29.90;67.30;;;;;;4979986;28;19942;-87
2022/07/20 17:35:40;;;;;;;;;;;29.60;67.60;;;;;;4978926;28;20094;-88
2022/07/20 17:38:09;;;;;;;;;;;29.30;68.10;;;;;;4972105;28;19937;-89
2022/07/20 17:40:38;;;;;;;;;;;30.00;69.40;;;;;;4956947;28;20691;-86
2022/07/20 17:43:09;;;;;;;;;;;28.70;68.90;;;;;;4976519;28;19941;-88
2022/07/20 17:45:37;;;;;;;;;;;28.40;69.50;;;;;;4960800;28;19934;-87
2022/07/20 17:48:06;;;;;;;;;;;28.50;70.30;;;;;;4995652;28;19926;-88
2022/07/20 17:50:35;;;;;;;;;;;28.10;70.20;;;;;;4996175;28;19929;-89
2022/07/20 17:53:12;;;;;;;;;;;27.90;70.40;;;;;;4979767;28;20057;-87
2022/07/20 17:55:42;;;;;;;;;;;27.80;70.40;;;;;;4981285;28;19926;-89
2022/07/20 17:58:21;;;;;;;;;;;27.70;71.00;;;;;;4945043;28;19926;-86
2022/07/20 18:00:50;;;;;;;;;;;27.00;71.60;;;;;;4953712;28;19933;-86
2022/07/20 18:03:21;;;;;;;;;;;27.40;71.90;;;;;;4979259;28;19930;-86
2022/07/20 18:06:11;;;;;;;;;;;27.30;72.50;;;;;;4977505;28;20101;-89
2022/07/20 18:08:40;;;;;;;;;;;27.10;72.50;;;;;;4977076;28;20389;-88
2022/07/20 18:11:08;;;;;;;;;;;27.00;73.00;;;;;;4976141;28;19929;-85
2022/07/20 18:13:39;;;;;;;;;;;26.90;73.40;;;;;;4990004;28;19934;-88
2022/07/20 18:16:08;;;;;;;;;;;26.80;73.80;;;;;;4974272;28;19933;-87
2022/07/20 18:18:38;;;;;;;;;;;26.60;74.00;;;;;;4976400;28;19926;-88
2022/07/20 18:21:06;;;;;;;;;;;26.60;74.50;;;;;;4966909;28;19933;-89
2022/07/20 18:23:40;;;;;;;;;;;26.50;75.10;;;;;;4977003;28;19937;-87
2022/07/20 18:26:11;;;;;;;;;;;26.50;75.40;;;;;;4975228;28;19941;-89
2022/07/20 18:28:43;;;;;;;;;;;26.20;81.10;;;;;;4984320;28;20419;-85
2022/07/20 18:31:13;;;;;;;;;;;25.80;83.40;;;;;;4959253;28;19937;-88
2022/07/20 18:33:42;;;;;;;;;;;25.20;84.00;;;;;;4976561;28;19937;-89
2022/07/20 18:36:12;;;;;;;;;;;25.30;86.60;;;;;;4972432;28;19941;-90
2022/07/20 18:38:43;;;;;;;;;;;25.40;85.80;;;;;;4984798;28;20282;-90
2022/07/20 18:41:15;;;;;;;;;;;24.90;88.10;;;;;;4973702;28;19926;-90
2022/07/20 18:44:06;;;;;;;;;;;24.90;89.10;;;;;;4969525;28;19937;-91
2022/07/20 18:46:42;;;;;;;;;;;25.70;88.30;;;;;;4965700;28;19926;-91
2022/07/20 18:49:16;;;;;;;;;;;25.10;90.30;;;;;;4964386;28;19926;-89
2022/07/20 18:51:46;;;;;;;;;;;24.30;89.30;;;;;;4949926;28;20404;-90
2022/07/20 18:54:18;;;;;;;;;;;24.10;89.30;;;;;;4976151;28;20330;-90
2022/07/20 18:56:47;;;;;;;;;;;24.10;89.80;;;;;;4967084;28;19937;-89
2022/07/20 18:59:35;;;;;;;;;;;24.20;89.90;;;;;;4967222;28;20067;-90
2022/07/20 19:02:04;;;;;;;;;;;24.50;90.10;;;;;;4965847;28;19930;-89
2022/07/20 19:04:36;;;;;;;;;;;23.10;90.00;;;;;;4939381;28;19930;-89
2022/07/20 19:07:09;;;;;;;;;;;24.10;90.00;;;;;;4965407;28;19930;-89
2022/07/20 19:09:38;;;;;;;;;;;24.00;89.60;;;;;;4983979;28;19930;-90
2022/07/20 19:12:06;;;;;;;;;;;24.60;90.50;;;;;;4964831;28;19930;-88
2022/07/20 19:14:33;;;;;;;;;;;24.00;90.20;;;;;;4979571;28;19930;-88
2022/07/20 19:17:06;;;;;;;;;;;24.00;89.70;;;;;;4979653;28;19930;-88
2022/07/20 19:19:42;;;;;;;;;;;24.00;90.00;;;;;;4983627;28;19937;-89
2022/07/20 19:22:15;;;;;;;;;;;24.20;90.40;;;;;;4969739;28;19941;-89
2022/07/20 19:24:46;;;;;;;;;;;24.30;90.10;;;;;;4975620;28;19937;-88
2022/07/20 19:27:20;;;;;;;;;;;23.90;90.10;;;;;;4999960;28;19930;-89
2022/07/20 19:29:50;;;;;;;;;;;23.90;90.50;;;;;;4961946;28;20377;-89
2022/07/20 19:32:26;;;;;;;;;;;23.90;90.30;;;;;;4988576;28;19934;-87
2022/07/20 19:34:55;;;;;;;;;;;23.90;90.60;;;;;;4985220;28;19926;-88
2022/07/20 19:37:24;;;;;;;;;;;24.00;90.70;;;;;;4942779;28;19949;-88
2022/07/20 19:39:55;;;;;;;;;;;23.80;91.10;;;;;;4973124;28;19937;-90
2022/07/20 19:42:26;;;;;;;;;;;23.80;90.80;;;;;;4998712;28;19934;-88
2022/07/20 19:44:57;;;;;;;;;;;23.70;90.80;;;;;;4981220;28;19949;-91